createdAt,value
2022-11-26T00:02:27.038Z,8.00
2022-11-26T00:05:14.807Z,8.00
2022-11-26T00:08:01.999Z,8.00
2022-11-26T00:10:51.009Z,8.00
2022-11-26T00:13:36.456Z,8.10
2022-11-26T00:16:22.439Z,8.00
2022-11-26T00:19:08.074Z,8.00
2022-11-26T00:21:53.911Z,8.10
2022-11-26T00:24:39.773Z,8.10
2022-11-26T00:27:27.501Z,8.10
2022-11-26T00:30:23.645Z,8.10
2022-11-26T00:33:09.214Z,8.10
2022-11-26T00:35:59.105Z,8.10
2022-11-26T00:38:47.219Z,8.10
2022-11-26T00:41:35.791Z,8.10
2022-11-26T00:44:23.360Z,8.20
2022-11-26T00:47:10.087Z,8.20
2022-11-26T00:49:55.699Z,8.20
2022-11-26T00:52:41.697Z,8.20
2022-11-26T00:55:31.970Z,8.20
2022-11-26T00:58:27.693Z,8.30
2022-11-26T01:01:16.464Z,8.30
2022-11-26T01:04:02.259Z,8.30
2022-11-26T01:06:48.065Z,8.30
2022-11-26T01:09:33.559Z,8.30
2022-11-26T01:12:18.889Z,8.30
2022-11-26T01:15:04.929Z,8.20
2022-11-26T01:17:51.996Z,8.20
2022-11-26T01:20:37.386Z,8.90
2022-11-26T01:23:23.195Z,8.20
2022-11-26T01:26:18.289Z,8.10
2022-11-26T01:29:04.495Z,8.20
2022-11-26T01:31:50.343Z,8.20
2022-11-26T01:34:36.025Z,8.20
2022-11-26T01:37:22.189Z,8.10
2022-11-26T01:40:47.047Z,8.10
2022-11-26T01:43:43.308Z,8.10
2022-11-26T01:46:30.963Z,8.10
2022-11-26T01:49:17.907Z,8.10
2022-11-26T01:52:03.577Z,8.10
2022-11-26T01:54:50.826Z,8.10
2022-11-26T01:57:38.754Z,8.10
2022-11-26T02:00:24.624Z,8.10
2022-11-26T02:03:10.740Z,8.10
2022-11-26T02:06:02.168Z,8.20
2022-11-26T02:08:48.080Z,8.10
2022-11-26T02:11:33.823Z,8.10
2022-11-26T02:14:26.873Z,8.10
2022-11-26T02:17:15.320Z,8.20
2022-11-26T02:20:22.165Z,8.20
2022-11-26T02:23:40.076Z,8.10
2022-11-26T02:26:35.096Z,8.10
2022-11-26T02:29:43.067Z,8.20
2022-11-26T02:32:51.615Z,8.10
2022-11-26T02:35:55.934Z,8.10
2022-11-26T02:38:41.932Z,8.10
2022-11-26T02:41:33.871Z,8.10
2022-11-26T02:44:23.970Z,8.10
2022-11-26T02:47:14.318Z,8.20
2022-11-26T02:50:07.309Z,8.20
2022-11-26T02:52:55.002Z,8.20
2022-11-26T02:55:46.055Z,8.20
2022-11-26T02:58:33.114Z,8.20
2022-11-26T03:01:31.770Z,8.20
2022-11-26T03:04:22.913Z,8.20
2022-11-26T03:07:10.170Z,8.30
2022-11-26T03:09:58.690Z,8.30
2022-11-26T03:12:44.440Z,8.20
2022-11-26T03:15:30.155Z,8.20
2022-11-26T03:18:15.715Z,8.20
2022-11-26T03:21:01.486Z,8.20
2022-11-26T03:23:46.884Z,8.20
2022-11-26T03:26:32.280Z,8.20
2022-11-26T03:29:18.099Z,8.20
2022-11-26T03:32:04.242Z,8.20
2022-11-26T03:34:50.281Z,8.20
2022-11-26T03:37:35.905Z,8.20
2022-11-26T03:40:21.853Z,8.20
2022-11-26T03:43:07.607Z,8.10
2022-11-26T03:45:53.571Z,8.10
2022-11-26T03:48:39.362Z,8.10
2022-11-26T03:51:26.636Z,8.10
2022-11-26T03:54:12.339Z,8.10
2022-11-26T03:56:58.154Z,8.00
2022-11-26T03:59:43.637Z,8.00
2022-11-26T04:02:28.937Z,8.00
2022-11-26T04:05:14.584Z,8.00
2022-11-26T04:08:00.233Z,8.00
2022-11-26T04:10:46.112Z,8.00
2022-11-26T04:13:31.672Z,8.00
2022-11-26T04:16:17.252Z,8.00
2022-11-26T04:19:02.844Z,7.90
2022-11-26T04:21:48.416Z,7.90
2022-11-26T04:24:34.331Z,7.90
2022-11-26T04:27:19.792Z,7.90
2022-11-26T04:30:07.784Z,7.90
2022-11-26T04:32:53.287Z,7.90
2022-11-26T04:35:39.031Z,7.90
2022-11-26T04:38:26.106Z,7.80
2022-11-26T04:41:12.056Z,7.80
2022-11-26T04:43:57.492Z,7.80
2022-11-26T04:46:43.374Z,7.80
2022-11-26T04:49:28.657Z,7.70
2022-11-26T04:52:14.608Z,7.70
2022-11-26T04:55:00.422Z,7.60
2022-11-26T04:57:48.583Z,7.60
2022-11-26T05:00:34.420Z,7.50
2022-11-26T05:03:20.128Z,7.50
2022-11-26T05:06:05.934Z,7.50
2022-11-26T05:08:51.835Z,7.50
2022-11-26T05:11:37.585Z,7.50
2022-11-26T05:14:23.048Z,7.50
2022-11-26T05:17:08.560Z,7.50
2022-11-26T05:19:53.909Z,7.50
2022-11-26T05:22:39.627Z,7.50
2022-11-26T05:25:25.299Z,7.50
2022-11-26T05:28:11.011Z,7.50
2022-11-26T05:31:01.181Z,7.40
2022-11-26T05:33:46.702Z,7.40
2022-11-26T05:36:32.380Z,7.40
2022-11-26T05:39:18.340Z,7.30
2022-11-26T05:42:08.978Z,7.20
2022-11-26T05:44:55.266Z,7.20
2022-11-26T05:47:40.753Z,7.20
2022-11-26T05:50:26.727Z,7.20
2022-11-26T05:53:12.242Z,7.10
2022-11-26T05:55:58.121Z,7.00
2022-11-26T05:58:43.656Z,6.90
2022-11-26T06:01:29.336Z,6.80
2022-11-26T06:04:14.997Z,6.80
2022-11-26T06:07:00.358Z,6.60
2022-11-26T06:09:45.908Z,6.50
2022-11-26T06:12:31.470Z,6.50
2022-11-26T06:15:17.295Z,6.40
2022-11-26T06:18:03.247Z,6.30
2022-11-26T06:20:48.680Z,6.10
2022-11-26T06:23:34.791Z,6.00
2022-11-26T06:26:20.250Z,6.00
2022-11-26T06:29:05.962Z,6.00
2022-11-26T06:31:51.833Z,6.00
2022-11-26T06:34:37.538Z,5.90
2022-11-26T06:37:23.573Z,5.90
2022-11-26T06:40:15.499Z,5.80
2022-11-26T06:43:01.272Z,5.80
2022-11-26T06:45:46.915Z,5.70
2022-11-26T06:48:33.587Z,6.60
2022-11-26T06:51:22.412Z,5.70
2022-11-26T06:54:08.291Z,5.70
2022-11-26T06:56:53.749Z,5.60
2022-11-26T06:59:39.350Z,5.60
2022-11-26T07:02:25.150Z,5.50
2022-11-26T07:05:10.721Z,5.60
2022-11-26T07:07:56.377Z,5.60
2022-11-26T07:10:46.100Z,5.70
2022-11-26T07:13:34.716Z,5.70
2022-11-26T07:16:21.007Z,5.60
2022-11-26T07:19:06.883Z,5.70
2022-11-26T07:21:52.834Z,5.70
2022-11-26T07:24:38.533Z,5.80
2022-11-26T07:27:24.190Z,5.80
2022-11-26T07:30:10.152Z,5.80
2022-11-26T07:32:55.706Z,5.90
2022-11-26T07:35:41.469Z,5.90
2022-11-26T07:38:28.231Z,6.00
2022-11-26T07:41:16.273Z,5.90
2022-11-26T07:44:01.901Z,6.00
2022-11-26T07:46:47.391Z,6.10
2022-11-26T07:49:33.024Z,6.10
2022-11-26T07:52:18.703Z,6.10
2022-11-26T07:55:09.482Z,6.10
2022-11-26T07:57:57.771Z,6.20
2022-11-26T08:00:43.299Z,6.20
2022-11-26T08:03:28.938Z,6.20
2022-11-26T08:06:20.528Z,6.20
2022-11-26T08:09:07.616Z,6.20
2022-11-26T08:11:53.170Z,6.20
2022-11-26T08:14:39.087Z,6.20
2022-11-26T08:17:25.248Z,6.20
2022-11-26T08:20:11.236Z,6.20
2022-11-26T08:22:57.057Z,6.20
2022-11-26T08:26:06.120Z,6.20
2022-11-26T08:28:48.928Z,6.10
2022-11-26T08:31:34.964Z,6.20
2022-11-26T08:34:20.997Z,6.20
2022-11-26T08:37:06.865Z,6.20
2022-11-26T08:39:52.673Z,6.30
2022-11-26T08:42:38.221Z,6.30
2022-11-26T08:45:23.929Z,6.40
2022-11-26T08:48:09.835Z,6.50
2022-11-26T08:51:00.479Z,6.60
2022-11-26T08:53:46.251Z,6.70
2022-11-26T08:56:31.937Z,6.80
2022-11-26T08:59:19.860Z,6.80
2022-11-26T09:02:05.647Z,6.80
2022-11-26T09:04:51.113Z,6.90
2022-11-26T09:07:36.810Z,6.90
2022-11-26T09:10:22.265Z,7.00
2022-11-26T09:13:07.928Z,7.10
2022-11-26T09:15:53.595Z,7.10
2022-11-26T09:18:39.280Z,7.20
2022-11-26T09:21:24.802Z,7.20
2022-11-26T09:24:13.410Z,7.20
2022-11-26T09:27:04.178Z,7.30
2022-11-26T09:29:53.205Z,7.40
2022-11-26T09:32:38.948Z,7.40
2022-11-26T09:35:25.217Z,7.40
2022-11-26T09:38:10.665Z,7.40
2022-11-26T09:41:13.702Z,7.40
2022-11-26T09:44:27.048Z,7.50
2022-11-26T09:47:19.874Z,7.50
2022-11-26T09:50:11.311Z,7.50
2022-11-26T09:53:12.776Z,7.50
2022-11-26T09:56:00.585Z,7.60
2022-11-26T09:58:52.278Z,7.70
2022-11-26T10:01:37.834Z,7.80
2022-11-26T10:04:33.187Z,7.90
2022-11-26T10:07:49.679Z,8.00
2022-11-26T10:10:52.024Z,8.10
2022-11-26T10:13:37.770Z,8.10
2022-11-26T10:16:46.813Z,8.30
2022-11-26T10:19:57.509Z,8.40
2022-11-26T10:22:56.910Z,8.40
2022-11-26T10:26:15.712Z,8.40
2022-11-26T10:29:25.982Z,8.50
2022-11-26T10:32:16.979Z,8.60
2022-11-26T10:35:03.101Z,8.70
2022-11-26T10:37:49.955Z,8.60
2022-11-26T10:40:35.715Z,8.70
2022-11-26T10:43:24.546Z,8.80
2022-11-26T10:46:33.925Z,8.70
2022-11-26T10:49:30.390Z,9.00
2022-11-26T10:52:20.915Z,9.10
2022-11-26T10:55:21.113Z,9.30
2022-11-26T10:58:19.168Z,9.40
2022-11-26T11:01:06.035Z,9.50
2022-11-26T11:04:10.541Z,9.70
2022-11-26T11:06:57.378Z,9.80
2022-11-26T11:09:43.492Z,9.90
2022-11-26T11:12:29.025Z,9.90
2022-11-26T11:15:23.597Z,9.80
2022-11-26T11:18:36.086Z,9.70
2022-11-26T11:21:22.451Z,9.80
2022-11-26T11:24:11.161Z,10.00
2022-11-26T11:26:58.681Z,10.10
2022-11-26T11:29:46.439Z,10.30
2022-11-26T11:32:39.046Z,10.40
2022-11-26T11:35:30.300Z,10.50
2022-11-26T11:38:24.591Z,10.60
2022-11-26T11:41:26.247Z,10.70
2022-11-26T11:44:25.373Z,10.80
2022-11-26T11:47:48.458Z,10.90
2022-11-26T11:50:44.208Z,11.00
2022-11-26T11:53:38.944Z,11.20
2022-11-26T11:56:38.501Z,11.20
2022-11-26T11:59:58.725Z,11.30
2022-11-26T12:03:18.788Z,11.30
2022-11-26T12:06:14.507Z,11.30
2022-11-26T12:09:49.899Z,11.30
2022-11-26T12:12:50.822Z,11.30
2022-11-26T12:16:03.106Z,11.40
2022-11-26T12:19:18.933Z,11.40
2022-11-26T12:22:39.932Z,11.50
2022-11-26T12:25:37.177Z,11.50
2022-11-26T12:28:31.808Z,11.60
2022-11-26T12:31:26.375Z,11.60
2022-11-26T12:34:14.831Z,11.60
2022-11-26T12:37:28.274Z,11.60
2022-11-26T12:40:16.918Z,11.60
2022-11-26T12:43:16.172Z,11.60
2022-11-26T12:46:17.458Z,11.60
2022-11-26T12:49:24.150Z,11.50
2022-11-26T12:52:25.755Z,11.60
2022-11-26T12:55:32.980Z,11.60
2022-11-26T12:58:27.169Z,11.60
2022-11-26T13:01:13.299Z,11.70
2022-11-26T13:04:22.009Z,11.70
2022-11-26T13:07:15.378Z,11.70
2022-11-26T13:10:20.303Z,11.70
2022-11-26T13:13:41.460Z,11.70
2022-11-26T13:16:39.999Z,11.70
2022-11-26T13:19:41.900Z,11.70
2022-11-26T13:22:52.713Z,11.70
2022-11-26T13:26:06.767Z,11.70
2022-11-26T13:28:52.462Z,11.70
2022-11-26T13:32:11.322Z,11.70
2022-11-26T13:35:19.675Z,11.70
2022-11-26T13:38:38.193Z,11.70
2022-11-26T13:41:39.525Z,11.60
2022-11-26T13:44:36.879Z,11.60
2022-11-26T13:47:33.056Z,11.60
2022-11-26T13:50:18.850Z,11.60
2022-11-26T13:53:18.133Z,11.50
2022-11-26T13:56:07.449Z,11.50
2022-11-26T13:59:04.696Z,11.20
2022-11-26T14:01:50.840Z,11.50
2022-11-26T14:04:49.103Z,11.50
2022-11-26T14:07:34.855Z,11.50
2022-11-26T14:10:41.506Z,11.50
2022-11-26T14:13:27.906Z,11.40
2022-11-26T14:16:13.869Z,11.40
2022-11-26T14:19:00.642Z,11.40
2022-11-26T14:21:59.352Z,11.40
2022-11-26T14:24:48.481Z,11.40
2022-11-26T14:27:59.126Z,11.40
2022-11-26T14:30:45.120Z,11.40
2022-11-26T14:33:32.148Z,11.30
2022-11-26T14:36:31.479Z,11.30
2022-11-26T14:39:17.267Z,11.30
2022-11-26T14:42:06.427Z,11.20
2022-11-26T14:45:17.039Z,11.30
2022-11-26T14:48:03.929Z,11.20
2022-11-26T14:50:50.864Z,11.20
2022-11-26T14:53:40.879Z,11.20
2022-11-26T14:56:27.556Z,11.10
2022-11-26T14:59:18.626Z,11.10
2022-11-26T15:02:22.086Z,11.00
2022-11-26T15:05:24.122Z,11.00
2022-11-26T15:08:20.378Z,11.00
2022-11-26T15:11:07.573Z,10.90
2022-11-26T15:13:53.586Z,10.80
2022-11-26T15:16:41.436Z,10.70
2022-11-26T15:19:30.700Z,10.70
2022-11-26T15:22:27.252Z,10.70
2022-11-26T15:25:28.411Z,10.60
2022-11-26T15:28:20.336Z,10.60
2022-11-26T15:31:09.956Z,10.50
2022-11-26T15:33:55.968Z,10.50
2022-11-26T15:36:41.940Z,10.40
2022-11-26T15:39:31.564Z,10.30
2022-11-26T15:42:35.861Z,10.30
2022-11-26T15:45:22.475Z,10.20
2022-11-26T15:48:28.123Z,10.20
2022-11-26T15:51:37.441Z,10.10
2022-11-26T15:54:56.710Z,10.00
2022-11-26T15:57:42.048Z,9.90
2022-11-26T16:00:38.479Z,9.90
2022-11-26T16:03:43.188Z,9.80
2022-11-26T16:06:36.837Z,9.80
2022-11-26T16:09:28.149Z,9.70
2022-11-26T16:12:34.389Z,9.60
2022-11-26T16:15:24.611Z,9.60
2022-11-26T16:18:17.220Z,9.50
2022-11-26T16:21:08.669Z,9.40
2022-11-26T16:24:01.785Z,9.40
2022-11-26T16:27:05.338Z,9.30
2022-11-26T16:29:50.908Z,9.20
2022-11-26T16:32:36.576Z,9.20
2022-11-26T16:35:44.721Z,9.20
2022-11-26T16:38:31.307Z,9.10
2022-11-26T16:41:18.943Z,9.00
2022-11-26T16:44:04.949Z,9.00
2022-11-26T16:46:51.969Z,8.90
2022-11-26T16:49:37.977Z,8.90
2022-11-26T16:52:23.929Z,8.80
2022-11-26T16:55:13.668Z,8.80
2022-11-26T16:58:01.498Z,8.70
2022-11-26T17:00:47.272Z,8.70
2022-11-26T17:03:33.486Z,8.60
2022-11-26T17:06:31.396Z,8.60
2022-11-26T17:09:20.705Z,8.60
2022-11-26T17:12:13.624Z,8.40
2022-11-26T17:14:59.065Z,8.40
2022-11-26T17:17:45.251Z,8.40
2022-11-26T17:20:31.067Z,8.40
2022-11-26T17:23:17.114Z,8.30
2022-11-26T17:26:05.289Z,8.30
2022-11-26T17:28:51.417Z,8.20
2022-11-26T17:31:37.437Z,8.10
2022-11-26T17:34:23.236Z,8.10
2022-11-26T17:37:15.043Z,8.10
2022-11-26T17:40:00.753Z,8.00
2022-11-26T17:42:46.804Z,8.00
2022-11-26T17:45:32.549Z,7.90
2022-11-26T17:48:19.047Z,7.90
2022-11-26T17:51:04.749Z,7.80
2022-11-26T17:53:50.424Z,7.80
2022-11-26T17:56:37.149Z,7.80
2022-11-26T17:59:24.029Z,7.80
2022-11-26T18:02:10.458Z,7.70
2022-11-26T18:04:56.240Z,7.70
2022-11-26T18:07:41.995Z,7.70
2022-11-26T18:10:27.372Z,7.70
2022-11-26T18:13:14.281Z,7.70
2022-11-26T18:16:00.635Z,7.60
2022-11-26T18:18:45.820Z,7.60
2022-11-26T18:21:31.576Z,7.60
2022-11-26T18:24:17.194Z,7.60
2022-11-26T18:27:04.304Z,7.60
2022-11-26T18:29:50.445Z,7.50
2022-11-26T18:32:37.952Z,7.50
2022-11-26T18:35:23.525Z,7.50
2022-11-26T18:38:11.354Z,7.50
2022-11-26T18:41:03.511Z,7.40
2022-11-26T18:43:49.512Z,7.40
2022-11-26T18:46:35.741Z,7.40
2022-11-26T18:49:21.379Z,7.30
2022-11-26T18:52:06.995Z,7.30
2022-11-26T18:54:52.537Z,7.30
2022-11-26T18:57:38.215Z,7.20
2022-11-26T19:00:23.710Z,7.30
2022-11-26T19:03:09.596Z,7.20
2022-11-26T19:05:55.979Z,7.20
2022-11-26T19:08:41.605Z,7.10
2022-11-26T19:11:30.644Z,7.10
2022-11-26T19:14:16.318Z,7.10
2022-11-26T19:17:01.962Z,7.10
2022-11-26T19:19:47.897Z,7.10
2022-11-26T19:22:34.218Z,7.10
2022-11-26T19:25:20.097Z,7.10
2022-11-26T19:28:06.648Z,7.00
2022-11-26T19:31:03.596Z,7.00
2022-11-26T19:33:54.130Z,7.00
2022-11-26T19:36:40.045Z,7.00
2022-11-26T19:39:25.620Z,7.00
2022-11-26T19:42:11.254Z,7.00
2022-11-26T19:44:56.809Z,7.00
2022-11-26T19:47:42.795Z,7.00
2022-11-26T19:50:28.415Z,7.00
2022-11-26T19:53:13.862Z,7.00
2022-11-26T19:56:12.797Z,6.90
2022-11-26T19:59:02.837Z,6.90
2022-11-26T20:01:49.026Z,6.90
2022-11-26T20:04:34.845Z,6.90
2022-11-26T20:07:22.732Z,6.80
2022-11-26T20:10:09.219Z,6.90
2022-11-26T20:12:55.051Z,7.10
2022-11-26T20:15:47.207Z,6.80
2022-11-26T20:18:34.193Z,6.80
2022-11-26T20:21:28.548Z,6.80
2022-11-26T20:24:16.676Z,6.80
2022-11-26T20:27:02.846Z,6.80
2022-11-26T20:29:48.003Z,6.90
2022-11-26T20:32:33.593Z,6.80
2022-11-26T20:35:19.279Z,6.80
2022-11-26T20:38:04.828Z,6.90
2022-11-26T20:40:50.471Z,6.90
2022-11-26T20:43:36.201Z,6.80
2022-11-26T20:46:22.292Z,6.80
2022-11-26T20:49:10.892Z,6.70
2022-11-26T20:51:56.610Z,6.80
2022-11-26T20:54:42.501Z,6.80
2022-11-26T20:57:28.280Z,6.80
2022-11-26T21:00:17.093Z,6.80
2022-11-26T21:03:02.824Z,6.80
2022-11-26T21:05:48.795Z,6.70
2022-11-26T21:08:36.414Z,6.70
2022-11-26T21:11:21.881Z,6.70
2022-11-26T21:14:13.388Z,6.70
2022-11-26T21:17:00.661Z,6.60
2022-11-26T21:19:46.202Z,6.60
2022-11-26T21:22:31.711Z,6.60
2022-11-26T21:25:19.679Z,6.50
2022-11-26T21:28:05.996Z,6.50
2022-11-26T21:30:51.549Z,6.50
2022-11-26T21:33:39.521Z,6.50
2022-11-26T21:36:25.578Z,6.50
2022-11-26T21:39:16.108Z,6.50
2022-11-26T21:42:01.940Z,6.40
2022-11-26T21:44:47.612Z,6.30
2022-11-26T21:47:33.605Z,6.40
2022-11-26T21:50:19.870Z,6.40
2022-11-26T21:53:05.598Z,6.40
2022-11-26T21:55:53.029Z,6.40
2022-11-26T21:58:38.996Z,6.30
2022-11-26T22:01:26.864Z,6.30
2022-11-26T22:04:15.927Z,6.30
2022-11-26T22:07:01.880Z,6.30
2022-11-26T22:09:47.508Z,6.30
2022-11-26T22:12:33.081Z,6.20
2022-11-26T22:15:20.242Z,6.30
2022-11-26T22:18:05.688Z,6.20
2022-11-26T22:20:54.449Z,6.20
2022-11-26T22:23:40.292Z,6.20
2022-11-26T22:26:28.228Z,6.20
2022-11-26T22:29:16.435Z,6.20
2022-11-26T22:32:02.120Z,6.20
2022-11-26T22:34:47.620Z,6.20
2022-11-26T22:37:33.774Z,6.20
2022-11-26T22:40:19.699Z,6.20
2022-11-26T22:43:05.207Z,6.20
2022-11-26T22:45:50.913Z,6.10
2022-11-26T22:48:36.717Z,6.10
2022-11-26T22:51:23.400Z,6.10
2022-11-26T22:54:12.046Z,6.10
2022-11-26T22:56:57.958Z,6.10
2022-11-26T22:59:44.224Z,6.10
2022-11-26T23:02:30.072Z,6.00
2022-11-26T23:05:15.692Z,6.00
2022-11-26T23:08:01.625Z,6.00
2022-11-26T23:10:50.945Z,6.00
2022-11-26T23:13:37.017Z,6.00
2022-11-26T23:16:25.643Z,6.00
2022-11-26T23:19:13.985Z,6.00
2022-11-26T23:21:59.822Z,6.00
2022-11-26T23:24:45.272Z,6.00
2022-11-26T23:27:30.938Z,6.00
2022-11-26T23:30:17.003Z,6.00
2022-11-26T23:33:02.648Z,6.00
2022-11-26T23:35:48.925Z,6.00
2022-11-26T23:38:35.655Z,6.00
2022-11-26T23:41:21.220Z,5.90
2022-11-26T23:44:07.155Z,5.90
2022-11-26T23:46:52.719Z,5.80
2022-11-26T23:49:38.772Z,5.80
2022-11-26T23:52:24.718Z,5.90
2022-11-26T23:55:10.380Z,5.90
2022-11-26T23:57:56.057Z,5.90
